createdAt,value
2023-03-26T00:08:24.594Z,5.40
2023-03-26T00:18:31.732Z,4.80
2023-03-26T00:28:38.215Z,4.80
2023-03-26T00:38:45.077Z,4.20
2023-03-26T00:48:51.714Z,3.20
2023-03-26T00:58:57.821Z,4.10
2023-03-26T01:09:13.457Z,3.80
2023-03-26T01:19:30.371Z,3.10
2023-03-26T01:29:44.126Z,2.90
2023-03-26T01:39:57.154Z,3.10
2023-03-26T01:50:03.088Z,3.00
2023-03-26T02:00:19.431Z,3.70
2023-03-26T02:10:29.728Z,3.80
2023-03-26T02:20:35.458Z,4.20
2023-03-26T02:30:41.206Z,3.90
2023-03-26T02:40:46.897Z,3.30
2023-03-26T02:50:54.680Z,4.10
2023-03-26T03:01:03.336Z,4.10
2023-03-26T03:11:13.069Z,3.30
2023-03-26T03:21:21.153Z,3.70
2023-03-26T03:31:28.439Z,2.40
2023-03-26T03:41:34.293Z,2.40
2023-03-26T03:51:40.055Z,2.40
2023-03-26T04:01:46.851Z,2.20
2023-03-26T04:11:52.608Z,2.70
2023-03-26T04:22:02.535Z,2.30
2023-03-26T04:32:12.710Z,2.60
2023-03-26T04:42:20.159Z,1.60
2023-03-26T04:52:26.005Z,2.00
2023-03-26T05:02:32.670Z,2.70
2023-03-26T05:12:38.434Z,2.80
2023-03-26T05:22:44.228Z,2.50
2023-03-26T05:32:51.993Z,2.70
2023-03-26T05:42:57.945Z,1.70
2023-03-26T05:53:03.792Z,1.90
2023-03-26T06:03:12.719Z,2.00
2023-03-26T06:13:19.109Z,2.30
2023-03-26T06:23:24.913Z,1.20
2023-03-26T06:33:31.238Z,1.30
2023-03-26T06:43:37.910Z,1.30
2023-03-26T06:53:43.557Z,1.00
2023-03-26T07:03:49.656Z,0.90
2023-03-26T07:13:56.880Z,0.80
2023-03-26T07:24:04.369Z,0.80
2023-03-26T07:34:20.877Z,1.70
2023-03-26T07:44:39.405Z,0.70
2023-03-26T07:54:46.323Z,0.90
2023-03-26T08:05:04.235Z,1.10
2023-03-26T08:15:19.197Z,0.90
2023-03-26T08:25:33.393Z,0.80
2023-03-26T08:35:42.374Z,0.90
2023-03-26T08:46:09.045Z,1.30
2023-03-26T08:56:25.900Z,1.20
2023-03-26T09:06:57.549Z,1.50
2023-03-26T09:17:21.258Z,2.10
2023-03-26T09:27:49.818Z,1.70
2023-03-26T09:38:00.658Z,1.80
2023-03-26T09:48:20.911Z,0.90
2023-03-26T09:58:43.084Z,1.50
2023-03-26T10:09:00.576Z,1.00
2023-03-26T10:19:22.457Z,0.60
2023-03-26T10:29:50.155Z,0.60
2023-03-26T10:50:32.783Z,0.90
2023-03-26T11:00:44.695Z,1.20
2023-03-26T11:10:57.692Z,1.00
2023-03-26T11:21:19.316Z,1.00
2023-03-26T11:31:40.052Z,1.00
2023-03-26T11:41:46.390Z,0.50
2023-03-26T11:51:52.238Z,0.90
2023-03-26T12:02:15.722Z,0.70
2023-03-26T12:12:22.724Z,0.60
2023-03-26T12:22:36.319Z,0.90
2023-03-26T12:32:46.797Z,0.30
2023-03-26T12:44:53.289Z,0.70
2023-03-26T12:53:39.638Z,0.60
2023-03-26T13:04:09.894Z,1.40
2023-03-26T13:14:49.869Z,1.30
2023-03-26T13:25:07.678Z,1.40
2023-03-26T13:45:43.959Z,1.50
2023-03-26T13:55:53.441Z,0.90
2023-03-26T14:06:05.761Z,1.00
2023-03-26T14:16:19.957Z,1.40
2023-03-26T14:26:37.367Z,1.80
2023-03-26T14:37:27.051Z,1.90
2023-03-26T14:47:41.442Z,1.30
2023-03-26T14:58:04.978Z,1.30
2023-03-26T15:08:41.785Z,1.80
2023-03-26T15:19:17.830Z,1.70
2023-03-26T15:30:05.626Z,0.90
2023-03-26T15:40:36.241Z,1.40
2023-03-26T15:50:54.189Z,2.40
2023-03-26T16:01:19.296Z,1.90
2023-03-26T22:39:48.569Z,35.40
2023-03-26T22:49:54.442Z,43.10
2023-03-26T23:00:08.372Z,43.90
2023-03-26T23:10:14.455Z,40.30
2023-03-26T23:21:23.980Z,38.10
2023-03-26T23:31:59.844Z,38.20
2023-03-26T23:42:05.633Z,40.20
2023-03-26T23:52:38.178Z,40.20
